Terminal Aerodrome Forecast
Issued by NWS Charleston, WV

Current Version | Previous Version | Graphics & Text | Print | Product List | Glossary On
Versions: 1 2 3 4 5 6 7 8 9 10 11 12 13 14 15 16 17 18 19 20 21 22 23 24 25 26 27 28 29 30 31
000
FTUS41 KRLX 300549
TAFEKN
TAF
KEKN 300549Z 3006/3106 00000KT 4SM BR SCT003
      TEMPO 3006/3008 1SM BR BKN003
     FM300800 00000KT 1/4SM FG OVC001
     FM301300 00000KT 1 1/2SM BR BKN008
     FM301500 00000KT P6SM BKN035
     FM302100 VRB03KT P6SM SHRA VCTS OVC050CB
     FM302300 00000KT P6SM BKN050=

USA.gov is the U.S. government's official web portal to all federal, state and local government web resources and services.